• Join FlightAware (Why Join?)
  • Login
  • US Flag 
05:02PM EDT


 

Airport Tracker/Info


-or-


 

Live Flight TrackerFlight Track Log ✈ AWE3210 ✈ 28-Jul-2013 ✈ KMHT - KPHL

Flight Track Log - Related Links

Times and Time Zones

All times are in EDT time to prevent confusion due to time zone crossing. See the AWE3210 flight status page for this flight to view local times or setup timezone preferences in your user account.

Time Position Orientation Groundspeed Altitude Reporting Facility
EDT Latitude Longitude Course Direction KTS MPH feet Rate Location/Type
07:05AM 42.9500 -71.4167 270° West 134 154 1,200  Level KA90
07:06AM 42.9833 -71.4000 20° North 189 217 2,000 1,620 Climbing KA90
07:07AM 42.9333 -71.7546 270° West  Level FlightAware Approximate
07:07AM 43.0500 -71.4000 360° North 254 292 4,200  Level KA90
07:08AM 42.9422 -71.8608 285° West  Level FlightAware Approximate
07:08AM 43.0992 -71.5531 294° West 296 341 9,100  Level Boston Center
07:09AM 42.9500 -71.9672 270° West  Level FlightAware Approximate
07:09AM 43.1189 -71.6722 283° West 287 330 11,100  Level Boston Center
07:10AM 42.9501 -72.0751 270° West  Level FlightAware Approximate
07:10AM 43.1111 -71.7775 264° West 307 353 13,900  Level Boston Center
07:11AM 43.1014 -71.9139 264° West 330 380 17,000 2,340 Climbing Boston Center
07:12AM 43.0936 -72.0392 265° West 337 388 18,700 1,980 Climbing Boston Center
07:13AM 43.0858 -72.1531 265° West 337 388 21,100 2,220 Climbing Boston Center
07:14AM 43.0819 -72.3036 268° West 349 402 23,200 1,980 Climbing Boston Center
07:15AM 43.0694 -72.4400 263° West 362 417 25,100 1,380 Climbing Boston Center
07:16AM 43.0608 -72.5736 265° West 367 422 26,000 420 Climbing Boston Center
07:17AM 43.0442 -72.7072 260° West 367 422 26,000  Level Boston Center
07:18AM 43.0353 -72.8406 265° West 367 422 26,000  Level Boston Center
07:19AM 43.0244 -72.9683 263° West 356 410 26,000  Level Boston Center
07:20AM 43.0153 -73.0961 264° West 350 403 26,000  Level Boston Center
07:21AM 43.0061 -73.2264 265° West 345 397 26,000  Level Boston Center
07:22AM 42.9928 -73.3542 262° West 345 397 26,000  Level Boston Center
07:23AM 42.9919 -73.4678 269° West 345 397 26,000  Level Boston Center
07:24AM 43.0008 -73.6011 275° West 345 397 26,000  Level Boston Center
07:25AM 43.0100 -73.7292 276° West 345 397 26,000  Level Boston Center
07:26AM 43.0189 -73.8656 275° West 350 403 26,000  Level Boston Center
07:27AM 42.9858 -73.9869 250° West 341 392 26,000  Level Boston Center
07:28AM 42.9097 -74.0814 222° Southwest 335 386 26,000 -360 Level Boston Center
07:29AM 42.8289 -74.1783 221° Southwest 366 421 25,400 -1,320 Descending Boston Center
07:30AM 42.7419 -74.2833 222° Southwest 381 438 23,400 -1,740 Descending Boston Center
07:31AM 42.6608 -74.3853 223° Southwest 395 455 22,000 -720 Descending Boston Center
07:32AM 42.5822 -74.4761 220° Southwest 395 455 22,000  Level Boston Center
07:33AM 42.5011 -74.5747 222° Southwest 395 455 22,000  Level Boston Center
07:34AM 42.4222 -74.6706 222° Southwest 395 455 22,000  Level Boston Center
07:36AM 42.2608 -74.8589 221° Southwest 393 452 22,000  Level New York Center
07:37AM 42.1786 -74.9517 220° Southwest 393 452 22,000 -300 Level New York Center
07:38AM 42.0906 -75.0300 213° Southwest 393 452 21,500 -1,260 Descending New York Center
07:39AM 42.0025 -75.1025 211° Southwest 393 452 19,500 -1,260 Descending New York Center
07:40AM 41.9081 -75.1825 212° Southwest 376 433 19,000 -300 Descending New York Center
07:41AM 41.8222 -75.2519 211° Southwest 370 426 19,000 -360 Level New York Center
07:42AM 41.7447 -75.3164 212° Southwest 370 426 18,400 -1,440 Descending New York Center
07:43AM 41.6503 -75.3903 210° Southwest 370 426 16,200 -2,040 Descending New York Center
07:44AM 41.5686 -75.4569 211° Southwest 362 417 14,400 -1,740 Descending New York Center
07:45AM 41.4869 -75.5203 210° Southwest 351 404 12,700 -1,200 Descending New York Center
07:46AM 41.4158 -75.5761 210° Southwest 346 398 12,000 -360 Descending New York Center
07:47AM 41.3275 -75.6472 211° Southwest 341 392 12,000  Level New York Center
07:48AM 41.2531 -75.6886 203° Southwest 341 392 12,000  Level New York Center
07:49AM 41.1558 -75.7203 194° South 328 377 12,000  Level New York Center
07:50AM 41.0706 -75.7664 202° Southwest 328 377 12,000  Level New York Center
07:51AM 40.9850 -75.8178 204° Southwest 334 384 12,000  Level New York Center
07:52AM 40.9064 -75.8558 200° South 339 390 12,000  Level New York Center
07:53AM 40.8208 -75.9044 203° Southwest 339 390 12,000  Level New York Center
07:54AM 40.7375 -75.9528 204° Southwest 339 390 12,000  Level New York Center
07:55AM 40.6478 -76.0008 202° Southwest 327 376 12,000  Level New York Center
07:56AM 40.5794 -76.0392 203° Southwest 304 350 12,000  Level New York Center
07:57AM 40.4983 -76.0850 203° Southwest 299 344 12,000  Level New York Center
07:58AM 40.4211 -76.1281 203° Southwest 299 344 12,000  Level New York Center
07:59AM 40.3442 -76.1711 203° Southwest 304 350 12,000 -120 Level New York Center
08:00AM 40.2672 -76.2142 203° Southwest 304 350 11,800 -660 Descending New York Center
08:01AM 40.1875 -76.2242 185° South 296 341 10,800 -900 Descending New York Center
08:02AM 40.1258 -76.1597 141° Southeast 265 305 10,000 -420 Descending New York Center
08:03AM 40.1036 -76.0547 105° East 260 299 10,000  Level New York Center
08:04AM 40.0975 -75.9539 94° East 280 322 10,000 -420 Level New York Center
08:05AM 40.0861 -75.8336 97° East 301 346 9,200 -1,140 Descending New York Center
08:06AM 40.0736 -75.7350 99° East 301 346 7,800 -1,140 Descending New York Center
08:07AM 40.0531 -75.6278 104° East 283 326 7,000 -480 Descending New York Center
08:08AM 40.0611 -75.5306 84° East 283 326 6,900 -480 Descending New York Center
08:09AM 40.0506 -75.4322 98° East 288 331 6,100 -480 Descending New York Center
08:10AM 40.0053 -75.4211 169° South 177 204 6,000 -60 Descending New York Center
08:11AM 39.9697 -75.4731 228° Southwest 146 168 6,000  Level New York Center
08:12AM 39.9428 -75.5225 235° Southwest 177 204 6,000  Level New York Center
08:13AM 39.9050 -75.5769 228° Southwest 193 222 6,000 -600 Level New York Center
08:14AM 39.8667 -75.6167 219° Southwest 184 212 4,900 -1,320 Descending Philadelphia TRACON
08:15AM 39.8167 -75.5833 153° Southeast 188 216 3,600 -960 Descending Philadelphia TRACON
08:16AM 39.8167 -75.5333 90° East 223 257 3,000 -480 Descending Philadelphia TRACON
08:17AM 39.8333 -75.4500 75° East 219 252 2,700 -720 Descending Philadelphia TRACON
08:18AM 39.8333 -75.3833 90° East 176 203 1,600 -900 Descending Philadelphia TRACON
08:19AM 39.8500 -75.3333 67° East 150 173 900 -780 Descending Philadelphia TRACON